createdAt,value
2022-11-17T00:02:19.701Z,12.88
2022-11-17T00:05:23.644Z,13.07
2022-11-17T00:08:26.120Z,12.55
2022-11-17T00:11:48.622Z,12.15
2022-11-17T00:14:52.065Z,12.30
2022-11-17T00:18:13.308Z,12.45
2022-11-17T00:21:18.946Z,12.82
2022-11-17T00:24:23.755Z,12.15
2022-11-17T00:27:26.157Z,13.23
2022-11-17T00:30:51.684Z,13.25
2022-11-17T00:34:08.007Z,12.52
2022-11-17T00:37:12.956Z,13.40
2022-11-17T00:40:15.349Z,12.82
2022-11-17T00:43:17.854Z,13.68
2022-11-17T00:46:20.227Z,12.82
2022-11-17T00:49:26.579Z,12.82
2022-11-17T00:52:28.785Z,12.73
2022-11-17T00:55:31.406Z,13.48
2022-11-17T00:58:35.477Z,12.55
2022-11-17T01:01:38.405Z,13.85
2022-11-17T01:04:40.720Z,13.98
2022-11-17T01:07:43.396Z,13.73
2022-11-17T01:10:48.687Z,13.45
2022-11-17T01:13:55.109Z,13.65
2022-11-17T01:16:57.364Z,14.40
2022-11-17T01:19:59.891Z,14.38
2022-11-17T01:23:02.119Z,15.52
2022-11-17T01:26:08.254Z,15.50
2022-11-17T01:29:13.118Z,15.40
2022-11-17T01:32:15.617Z,15.35
2022-11-17T01:35:17.897Z,15.57
2022-11-17T01:38:20.438Z,15.65
2022-11-17T01:41:25.230Z,15.18
2022-11-17T01:44:36.142Z,15.65
2022-11-17T01:47:40.626Z,15.82
2022-11-17T01:50:49.299Z,15.88
2022-11-17T01:53:52.049Z,16.00
2022-11-17T01:57:00.940Z,14.32
2022-11-17T02:00:08.631Z,14.98
2022-11-17T02:03:11.797Z,14.90
2022-11-17T02:06:20.932Z,14.90
2022-11-17T02:09:24.623Z,15.35
2022-11-17T02:12:28.211Z,14.93
2022-11-17T02:15:30.775Z,12.68
2022-11-17T02:18:33.083Z,13.20
2022-11-17T02:22:09.215Z,13.90
2022-11-17T02:25:33.384Z,13.90
2022-11-17T02:28:49.323Z,13.57
2022-11-17T02:32:04.259Z,12.90
2022-11-17T02:35:21.637Z,12.90
2022-11-17T02:38:32.403Z,13.25
2022-11-17T02:41:49.412Z,13.38
2022-11-17T02:44:58.367Z,12.85
2022-11-17T02:48:05.443Z,14.13
2022-11-17T02:51:13.275Z,12.73
2022-11-17T02:54:16.635Z,13.45
2022-11-17T02:57:49.598Z,13.20
2022-11-17T03:00:59.691Z,13.57
2022-11-17T03:04:26.008Z,12.93
2022-11-17T03:07:57.614Z,14.10
2022-11-17T03:11:05.349Z,13.48
2022-11-17T03:14:42.678Z,12.60
2022-11-17T03:17:56.882Z,13.27
2022-11-17T03:21:31.154Z,12.73
2022-11-17T03:24:50.346Z,14.67
2022-11-17T03:27:58.711Z,14.45
2022-11-17T03:31:04.193Z,14.38
2022-11-17T03:34:11.613Z,15.98
2022-11-17T03:37:18.872Z,14.98
2022-11-17T03:40:25.530Z,14.57
2022-11-17T03:43:30.073Z,15.45
2022-11-17T03:46:36.550Z,14.87
2022-11-17T03:49:45.266Z,15.38
2022-11-17T03:52:48.943Z,14.27
2022-11-17T03:56:11.567Z,15.27
2022-11-17T03:59:19.872Z,14.32
2022-11-17T04:02:23.946Z,14.40
2022-11-17T04:05:27.444Z,14.40
2022-11-17T04:08:30.939Z,14.47
2022-11-17T04:15:13.069Z,13.02
2022-11-17T04:18:19.199Z,13.10
2022-11-17T04:21:21.511Z,13.88
2022-11-17T04:24:24.151Z,13.70
2022-11-17T04:27:45.030Z,13.25
2022-11-17T04:30:47.523Z,15.55
2022-11-17T04:33:51.854Z,19.15
2022-11-17T04:36:54.421Z,14.10
2022-11-17T04:39:56.649Z,12.77
2022-11-17T04:42:59.163Z,16.08
2022-11-17T04:46:01.430Z,13.25
2022-11-17T04:49:05.015Z,13.40
2022-11-17T04:52:07.472Z,13.40
2022-11-17T04:55:10.000Z,13.07
2022-11-17T04:58:12.276Z,11.57
2022-11-17T05:01:17.492Z,11.93
2022-11-17T05:04:39.930Z,11.43
2022-11-17T05:07:42.542Z,13.00
2022-11-17T05:14:08.165Z,12.52
2022-11-17T05:17:11.802Z,12.35
2022-11-17T05:20:17.613Z,13.38
2022-11-17T05:23:49.116Z,12.13
2022-11-17T05:26:51.658Z,13.02
2022-11-17T05:29:53.973Z,12.35
2022-11-17T05:32:56.533Z,13.60
2022-11-17T05:35:58.907Z,12.65
2022-11-17T05:39:01.752Z,13.75
2022-11-17T05:42:04.156Z,13.57
2022-11-17T05:45:07.463Z,12.02
2022-11-17T05:48:09.688Z,13.10
2022-11-17T05:51:12.404Z,12.93
2022-11-17T05:54:14.717Z,13.40
2022-11-17T05:57:25.582Z,12.40
2022-11-17T06:00:29.438Z,12.70
2022-11-17T06:03:39.868Z,12.48
2022-11-17T06:06:42.083Z,12.88
2022-11-17T06:09:45.830Z,12.35
2022-11-17T06:12:48.171Z,12.80
2022-11-17T06:15:50.739Z,12.82
2022-11-17T06:19:08.792Z,12.48
2022-11-17T06:22:13.337Z,11.90
2022-11-17T06:25:18.670Z,12.75
2022-11-17T06:28:22.570Z,11.80
2022-11-17T06:31:27.965Z,12.82
2022-11-17T06:34:32.888Z,12.85
2022-11-17T06:37:35.299Z,12.20
2022-11-17T06:40:37.952Z,11.70
2022-11-17T06:43:40.212Z,12.48
2022-11-17T06:46:47.607Z,13.32
2022-11-17T06:49:51.130Z,12.73
2022-11-17T06:53:00.546Z,12.77
2022-11-17T06:56:07.471Z,11.95
2022-11-17T06:59:10.102Z,13.05
2022-11-17T07:02:12.392Z,12.80
2022-11-17T07:05:15.123Z,12.60
2022-11-17T07:08:19.028Z,12.30
2022-11-17T07:11:21.686Z,11.40
2022-11-17T07:14:23.932Z,11.57
2022-11-17T07:17:27.368Z,12.07
2022-11-17T07:20:29.623Z,12.13
2022-11-17T07:23:33.208Z,11.10
2022-11-17T07:26:35.578Z,10.93
2022-11-17T07:29:38.145Z,11.43
2022-11-17T07:32:40.583Z,11.02
2022-11-17T07:35:43.504Z,11.27
2022-11-17T07:38:45.808Z,9.63
2022-11-17T07:41:48.362Z,9.43
2022-11-17T07:44:50.718Z,9.20
2022-11-17T07:47:58.590Z,9.23
2022-11-17T07:51:02.045Z,9.30
2022-11-17T07:54:04.943Z,8.32
2022-11-17T07:57:07.631Z,7.35
2022-11-17T08:00:11.274Z,9.52
2022-11-17T08:03:14.195Z,8.98
2022-11-17T08:06:17.128Z,8.10
2022-11-17T08:09:19.486Z,8.57
2022-11-17T08:12:22.156Z,8.68
2022-11-17T08:15:24.698Z,8.52
2022-11-17T08:18:28.713Z,8.25
2022-11-17T08:21:31.106Z,8.20
2022-11-17T08:24:33.732Z,9.30
2022-11-17T08:27:36.016Z,8.88
2022-11-17T08:30:38.772Z,9.40
2022-11-17T08:33:41.040Z,9.07
2022-11-17T08:36:44.070Z,9.05
2022-11-17T08:39:46.341Z,9.57
2022-11-17T08:43:00.354Z,10.77
2022-11-17T08:46:03.930Z,9.73
2022-11-17T08:49:06.518Z,9.30
2022-11-17T08:52:08.782Z,10.18
2022-11-17T08:55:11.479Z,8.27
2022-11-17T08:58:13.812Z,7.93
2022-11-17T09:01:16.986Z,7.32
2022-11-17T09:04:19.531Z,8.40
2022-11-17T09:07:22.191Z,8.23
2022-11-17T09:10:25.229Z,8.43
2022-11-17T09:13:27.796Z,8.70
2022-11-17T09:16:30.120Z,7.87
2022-11-17T09:19:32.804Z,7.20
2022-11-17T09:22:35.069Z,7.43
2022-11-17T09:25:37.598Z,6.68
2022-11-17T09:28:40.510Z,7.40
2022-11-17T09:31:43.253Z,6.20
2022-11-17T09:34:45.794Z,6.12
2022-11-17T09:37:48.478Z,6.00
2022-11-17T09:40:51.280Z,6.12
2022-11-17T09:44:18.280Z,6.00
2022-11-17T09:47:46.103Z,6.35
2022-11-17T09:50:50.663Z,5.87
2022-11-17T09:53:59.671Z,6.28
2022-11-17T09:57:05.035Z,5.50
2022-11-17T10:00:21.015Z,5.65
2022-11-17T10:03:30.865Z,5.80
2022-11-17T10:06:33.192Z,5.90
2022-11-17T10:09:41.962Z,5.57
2022-11-17T10:12:50.718Z,5.60
2022-11-17T10:16:13.284Z,5.80
2022-11-17T10:19:24.574Z,5.90
2022-11-17T10:22:35.012Z,5.80
2022-11-17T10:25:48.583Z,5.40
2022-11-17T10:29:11.473Z,5.22
2022-11-17T10:32:15.229Z,5.30
2022-11-17T10:35:19.417Z,6.40
2022-11-17T10:38:23.198Z,6.30
2022-11-17T10:41:30.589Z,6.32
2022-11-17T10:44:33.901Z,6.47
2022-11-17T10:47:40.480Z,6.93
2022-11-17T10:51:19.553Z,6.60
2022-11-17T10:54:22.212Z,6.50
2022-11-17T10:57:26.890Z,6.05
2022-11-17T11:00:32.777Z,6.53
2022-11-17T11:03:35.916Z,6.40
2022-11-17T11:06:47.719Z,6.93
2022-11-17T11:09:56.253Z,6.82
2022-11-17T11:13:20.169Z,6.28
2022-11-17T11:16:25.521Z,6.18
2022-11-17T11:19:30.224Z,6.15
2022-11-17T11:22:42.289Z,6.15
2022-11-17T11:25:57.429Z,6.25
2022-11-17T11:29:21.277Z,6.05
2022-11-17T11:32:48.477Z,6.45
2022-11-17T11:36:11.402Z,5.82
2022-11-17T11:39:37.397Z,5.80
2022-11-17T11:42:58.763Z,6.03
2022-11-17T11:46:16.336Z,5.85
2022-11-17T11:49:34.112Z,5.78
2022-11-17T11:52:40.357Z,6.35
2022-11-17T11:55:46.947Z,6.07
2022-11-17T11:58:59.150Z,6.18
2022-11-17T12:02:24.580Z,6.22
2022-11-17T12:06:40.878Z,5.62
2022-11-17T12:09:46.136Z,6.10
2022-11-17T12:12:51.993Z,6.10
2022-11-17T12:16:18.295Z,6.03
2022-11-17T12:19:55.237Z,5.82
2022-11-17T12:23:19.819Z,6.18
2022-11-17T12:26:31.035Z,5.90
2022-11-17T12:29:48.413Z,6.20
2022-11-17T12:32:53.068Z,5.32
2022-11-17T12:36:29.695Z,5.70
2022-11-17T12:40:02.077Z,5.72
2022-11-17T12:43:14.659Z,5.55
2022-11-17T12:46:33.397Z,5.25
2022-11-17T12:50:03.126Z,5.40
2022-11-17T12:53:19.801Z,5.10
2022-11-17T12:56:43.605Z,5.22
2022-11-17T12:59:46.371Z,5.50
2022-11-17T13:03:10.855Z,6.25
2022-11-17T13:09:38.656Z,5.53
2022-11-17T13:12:41.421Z,5.22
2022-11-17T13:15:44.617Z,5.87
2022-11-17T13:18:49.019Z,5.80
2022-11-17T13:21:59.018Z,5.72
2022-11-17T13:25:13.017Z,4.53
2022-11-17T13:28:45.051Z,5.05
2022-11-17T13:31:47.816Z,4.78
2022-11-17T13:34:56.747Z,5.00
2022-11-17T13:38:18.497Z,5.30
2022-11-17T13:49:54.905Z,5.60
2022-11-17T13:53:18.760Z,6.57
2022-11-17T13:56:32.771Z,5.40
2022-11-17T13:59:38.499Z,5.60
2022-11-17T14:02:53.418Z,5.45
2022-11-17T14:05:59.139Z,6.00
2022-11-17T14:09:05.584Z,5.93
2022-11-17T14:12:10.766Z,6.30
2022-11-17T14:15:23.027Z,6.90
2022-11-17T14:18:29.130Z,6.75
2022-11-17T14:21:33.977Z,6.07
2022-11-17T14:24:38.117Z,6.45
2022-11-17T14:27:40.562Z,6.47
2022-11-17T14:30:43.693Z,6.12
2022-11-17T14:33:46.098Z,6.47
2022-11-17T14:36:55.354Z,6.30
2022-11-17T14:40:00.699Z,7.10
2022-11-17T14:43:03.272Z,7.40
2022-11-17T14:46:06.946Z,7.18
2022-11-17T14:52:11.816Z,7.18
2022-11-17T14:55:14.789Z,7.32
2022-11-17T14:58:17.123Z,7.50
2022-11-17T15:01:28.387Z,7.05
2022-11-17T15:07:55.347Z,6.90
2022-11-17T15:10:58.365Z,7.12
2022-11-17T15:14:06.461Z,8.13
2022-11-17T15:17:13.939Z,9.15
2022-11-17T15:20:18.164Z,7.75
2022-11-17T15:23:20.469Z,8.95
2022-11-17T15:26:23.835Z,8.10
2022-11-17T15:29:26.562Z,8.20
2022-11-17T15:32:29.848Z,8.80
2022-11-17T15:35:32.448Z,8.05
2022-11-17T15:38:35.876Z,9.37
2022-11-17T15:41:38.279Z,9.15
2022-11-17T15:44:41.086Z,8.45
2022-11-17T15:47:43.367Z,8.68
2022-11-17T15:50:45.912Z,9.10
2022-11-17T15:53:49.808Z,8.82
2022-11-17T15:56:52.690Z,9.10
2022-11-17T15:59:55.069Z,9.18
2022-11-17T16:02:58.873Z,9.60
2022-11-17T16:09:06.598Z,8.30
2022-11-17T16:12:13.496Z,8.20
2022-11-17T16:15:18.932Z,8.60
2022-11-17T16:18:22.232Z,8.35
2022-11-17T16:21:24.822Z,8.85
2022-11-17T16:24:27.864Z,9.95
2022-11-17T16:27:32.033Z,9.35
2022-11-17T16:30:35.851Z,9.48
2022-11-17T16:33:38.242Z,8.95
2022-11-17T16:36:42.687Z,9.68
2022-11-17T16:39:45.049Z,9.93
2022-11-17T16:42:47.666Z,9.77
2022-11-17T16:45:49.972Z,9.63
2022-11-17T16:48:54.247Z,9.88
2022-11-17T16:51:59.031Z,10.02
2022-11-17T16:55:05.282Z,9.52
2022-11-17T16:58:09.415Z,10.00
2022-11-17T17:01:13.894Z,10.88
2022-11-17T17:04:16.286Z,10.73
2022-11-17T17:07:19.152Z,11.48
2022-11-17T17:10:21.648Z,7.85
2022-11-17T17:13:24.217Z,11.85
2022-11-17T17:16:26.532Z,11.40
2022-11-17T17:19:29.335Z,12.43
2022-11-17T17:22:31.629Z,12.85
2022-11-17T17:25:34.525Z,12.02
2022-11-17T17:28:40.569Z,12.15
2022-11-17T17:31:43.398Z,13.88
2022-11-17T17:34:45.793Z,12.32
2022-11-17T17:37:48.566Z,14.32
2022-11-17T17:40:50.904Z,13.52
2022-11-17T17:43:59.245Z,12.95
2022-11-17T17:47:01.520Z,11.90
2022-11-17T17:50:04.352Z,13.88
2022-11-17T17:53:07.672Z,14.27
2022-11-17T17:56:12.810Z,13.55
2022-11-17T17:59:16.578Z,13.73
2022-11-17T18:02:19.608Z,14.13
2022-11-17T18:05:22.684Z,15.18
2022-11-17T18:08:24.975Z,13.62
2022-11-17T18:11:27.597Z,14.02
2022-11-17T18:14:29.856Z,13.32
2022-11-17T18:17:32.418Z,13.18
2022-11-17T18:20:35.418Z,13.65
2022-11-17T18:23:38.561Z,13.40
2022-11-17T18:26:41.322Z,13.48
2022-11-17T18:29:43.946Z,13.80
2022-11-17T18:32:46.263Z,13.52
2022-11-17T18:35:48.835Z,13.75
2022-11-17T18:38:52.797Z,14.25
2022-11-17T18:41:56.221Z,12.88
2022-11-17T18:44:58.568Z,13.47
2022-11-17T18:48:01.130Z,12.55
2022-11-17T18:51:19.017Z,14.07
2022-11-17T18:54:22.316Z,13.57
2022-11-17T18:57:24.640Z,13.45
2022-11-17T19:00:27.215Z,14.60
2022-11-17T19:03:29.459Z,13.25
2022-11-17T19:06:32.129Z,12.32
2022-11-17T19:09:34.650Z,14.68
2022-11-17T19:12:38.786Z,13.98
2022-11-17T19:15:41.483Z,12.37
2022-11-17T19:18:46.149Z,14.67
2022-11-17T19:24:52.136Z,14.87
2022-11-17T19:27:54.579Z,15.30
2022-11-17T19:31:04.705Z,14.25
2022-11-17T19:34:07.389Z,14.63
2022-11-17T19:37:09.955Z,14.68
2022-11-17T19:40:12.632Z,15.18
2022-11-17T19:43:17.926Z,15.48
2022-11-17T19:46:20.694Z,15.95
2022-11-17T19:49:23.378Z,16.40
2022-11-17T19:52:27.128Z,16.73
2022-11-17T19:58:31.865Z,15.43
2022-11-17T20:04:39.693Z,16.30
2022-11-17T20:07:42.076Z,17.00
2022-11-17T20:10:44.825Z,15.45
2022-11-17T20:13:47.651Z,17.08
2022-11-17T20:16:50.206Z,16.92
2022-11-17T20:19:52.572Z,15.50
2022-11-17T20:22:55.785Z,16.48
2022-11-17T20:25:58.361Z,16.47
2022-11-17T20:29:01.582Z,15.93
2022-11-17T20:32:03.973Z,15.65
2022-11-17T20:35:06.951Z,15.60
2022-11-17T20:38:13.039Z,15.77
2022-11-17T20:41:20.952Z,15.07
2022-11-17T20:44:26.359Z,15.10
2022-11-17T20:47:29.615Z,16.33
2022-11-17T20:50:32.118Z,15.05
2022-11-17T20:53:35.410Z,14.95
2022-11-17T20:56:37.656Z,15.20
2022-11-17T20:59:40.667Z,15.25
2022-11-17T21:02:42.895Z,14.85
2022-11-17T21:05:58.384Z,15.75
2022-11-17T21:09:01.388Z,16.70
2022-11-17T21:12:04.088Z,15.27
2022-11-17T21:15:06.880Z,16.12
2022-11-17T21:18:26.124Z,16.00
2022-11-17T21:21:28.653Z,14.73
2022-11-17T21:24:31.240Z,14.55
2022-11-17T21:27:33.497Z,15.55
2022-11-17T21:30:36.079Z,15.10
2022-11-17T21:33:39.267Z,15.77
2022-11-17T21:36:42.329Z,15.77
2022-11-17T21:39:44.539Z,14.13
2022-11-17T21:42:47.114Z,15.55
2022-11-17T21:45:49.393Z,16.33
2022-11-17T21:48:53.671Z,14.90
2022-11-17T21:54:59.193Z,15.70
2022-11-17T21:58:02.018Z,14.07
2022-11-17T22:01:15.612Z,15.80
2022-11-17T22:04:19.275Z,15.90
2022-11-17T22:07:21.681Z,15.60
2022-11-17T22:10:24.542Z,16.48
2022-11-17T22:13:26.797Z,14.40
2022-11-17T22:16:29.331Z,16.58
2022-11-17T22:19:33.701Z,15.63
2022-11-17T22:22:36.194Z,14.95
2022-11-17T22:25:45.318Z,16.92
2022-11-17T22:28:56.090Z,15.40
2022-11-17T22:31:58.329Z,15.05
2022-11-17T22:35:01.812Z,15.32
2022-11-17T22:38:04.369Z,15.90
2022-11-17T22:41:07.954Z,14.27
2022-11-17T22:44:13.811Z,16.37
2022-11-17T22:47:16.420Z,17.10
2022-11-17T22:50:18.777Z,16.45
2022-11-17T22:53:21.436Z,15.55
2022-11-17T22:56:23.785Z,16.23
2022-11-17T22:59:27.776Z,15.00
2022-11-17T23:02:30.032Z,17.37
2022-11-17T23:05:32.604Z,15.60
2022-11-17T23:08:34.908Z,15.43
2022-11-17T23:11:40.628Z,16.73
2022-11-17T23:14:43.218Z,16.58
2022-11-17T23:17:45.829Z,16.58
2022-11-17T23:20:48.541Z,16.77
2022-11-17T23:23:51.592Z,17.02
2022-11-17T23:26:53.952Z,17.20
2022-11-17T23:29:56.535Z,17.30
2022-11-17T23:32:58.858Z,17.83
2022-11-17T23:36:02.646Z,17.02
2022-11-17T23:39:05.095Z,17.02
2022-11-17T23:42:07.692Z,16.75
2022-11-17T23:45:11.821Z,16.50
2022-11-17T23:48:14.340Z,17.60
2022-11-17T23:51:19.925Z,16.83
2022-11-17T23:54:22.511Z,16.87
2022-11-17T23:57:24.746Z,17.40
